Time;durP1;ratioP1;P1;durP2;ratioP2;P2;SDS_P1;SDS_P2;PMS_P1;PMS_P2;Temp;Humidity;BMP_temperature;BMP_pressure;BME280_temperature;BME280_humidity;BME280_pressure;Samples;Min_cycle;Max_cycle;Signal;HPM_P1;HPM_P2
2022/08/02 00:06:27;;;;;;;3.33;3.03;;;22.70;76.20;;;;;;20998873;28;20237;-74
2022/08/02 00:16:29;;;;;;;3.73;3.20;;;22.60;77.20;;;;;;20996748;28;20231;-73
2022/08/02 00:26:39;;;;;;;4.60;3.70;;;22.50;78.10;;;;;;20994919;28;20206;-74
2022/08/02 00:36:41;;;;;;;3.47;3.17;;;22.50;79.00;;;;;;20995721;28;20694;-73
2022/08/02 00:46:43;;;;;;;5.13;3.33;;;22.50;79.20;;;;;;21007049;28;20234;-75
2022/08/02 00:56:44;;;;;;;4.50;3.10;;;22.50;79.90;;;;;;21012327;28;20233;-74
2022/08/02 01:06:51;;;;;;;4.00;2.90;;;22.40;80.50;;;;;;21010747;28;20256;-75
2022/08/02 01:17:06;;;;;;;4.00;2.80;;;22.50;80.60;;;;;;21009971;28;20257;-73
2022/08/02 01:27:33;;;;;;;3.37;2.90;;;22.40;80.60;;;;;;21009477;28;20203;-74
2022/08/02 01:37:53;;;;;;;3.10;2.80;;;22.30;81.40;;;;;;21009114;28;20239;-73
2022/08/02 01:47:58;;;;;;;3.20;2.90;;;22.10;82.30;;;;;;21008177;28;20710;-74
2022/08/02 01:58:04;;;;;;;3.37;3.07;;;22.00;83.10;;;;;;21006572;28;20238;-74
2022/08/02 02:08:08;;;;;;;4.80;2.90;;;21.90;83.80;;;;;;21006757;28;20213;-73
2022/08/02 02:18:13;;;;;;;2.80;2.60;;;21.80;84.40;;;;;;21005568;28;20234;-74
2022/08/02 02:28:28;;;;;;;3.50;2.60;;;21.70;84.80;;;;;;20940521;28;20727;-73
2022/08/02 02:38:32;;;;;;;3.20;2.90;;;21.80;85.50;;;;;;20920164;28;20769;-74
2022/08/02 02:48:35;;;;;;;2.83;2.53;;;21.70;85.80;;;;;;20920214;28;20231;-73
2022/08/02 02:58:38;;;;;;;2.83;2.63;;;21.80;86.10;;;;;;20926444;28;20232;-74
2022/08/02 03:08:40;;;;;;;3.37;3.00;;;21.80;86.20;;;;;;20923610;28;20695;-75
2022/08/02 03:18:43;;;;;;;5.53;4.10;;;21.70;86.20;;;;;;20917583;28;20234;-72
2022/08/02 03:28:45;;;;;;;4.07;2.57;;;21.60;86.70;;;;;;20916964;28;20681;-73
2022/08/02 03:38:50;;;;;;;2.80;2.60;;;21.60;87.00;;;;;;20916543;28;20240;-73
2022/08/02 03:48:53;;;;;;;5.30;2.80;;;21.60;87.40;;;;;;20915196;28;20242;-73
2022/08/02 03:59:12;;;;;;;5.60;2.57;;;21.40;87.90;;;;;;20915030;28;20246;-74
2022/08/02 04:09:14;;;;;;;4.27;2.40;;;21.30;88.10;;;;;;20914519;28;20294;-74
2022/08/02 04:19:30;;;;;;;5.93;2.77;;;21.30;88.70;;;;;;20913224;28;20250;-73
2022/08/02 04:29:32;;;;;;;3.47;2.77;;;21.10;89.10;;;;;;20977614;28;20654;-73
2022/08/02 04:39:34;;;;;;;4.97;3.03;;;21.10;89.70;;;;;;20995074;28;20234;-74
2022/08/02 04:49:36;;;;;;;3.40;2.40;;;21.10;90.10;;;;;;20995496;28;20329;-73
2022/08/02 04:59:38;;;;;;;3.20;2.50;;;21.00;90.30;;;;;;20994260;28;20268;-74
2022/08/02 05:09:39;;;;;;;9.83;3.10;;;21.10;90.30;;;;;;21003856;28;20301;-75
2022/08/02 05:19:41;;;;;;;16.83;3.50;;;21.10;90.40;;;;;;21008711;28;20241;-74
2022/08/02 05:29:43;;;;;;;5.87;3.23;;;21.20;90.50;;;;;;21003944;28;20302;-79
2022/08/02 05:39:53;;;;;;;3.27;2.37;;;21.40;90.00;;;;;;21007106;28;20261;-74
2022/08/02 05:49:56;;;;;;;3.43;2.93;;;21.40;90.20;;;;;;21004669;28;20246;-79
2022/08/02 06:00:10;;;;;;;8.40;2.80;;;21.30;90.30;;;;;;21005074;28;20241;-73
2022/08/02 06:10:13;;;;;;;5.43;2.80;;;21.50;90.20;;;;;;21003863;28;20215;-78
2022/08/02 06:20:15;;;;;;;2.93;2.50;;;21.70;89.90;;;;;;21003949;28;20281;-76
2022/08/02 06:30:17;;;;;;;3.03;2.40;;;21.90;89.50;;;;;;20935659;28;20298;-75
2022/08/02 06:40:44;;;;;;;4.90;2.70;;;22.10;88.80;;;;;;20918171;28;20703;-77
2022/08/02 06:50:46;;;;;;;3.07;2.23;;;22.20;88.10;;;;;;20918504;28;20239;-79
2022/08/02 07:00:48;;;;;;;14.70;2.80;;;22.30;87.90;;;;;;20917124;28;20232;-78
2022/08/02 07:10:49;;;;;;;6.50;2.20;;;22.50;87.20;;;;;;20916979;28;20208;-78
2022/08/02 07:20:51;;;;;;;4.70;2.33;;;22.70;86.70;;;;;;20947142;28;20232;-77
2022/08/02 07:30:53;;;;;;;9.67;3.10;;;23.00;86.00;;;;;;20936152;28;20211;-78
2022/08/02 07:40:55;;;;;;;11.47;4.20;;;23.20;85.40;;;;;;20917388;28;20246;-72
2022/08/02 07:50:57;;;;;;;10.70;2.10;;;23.40;84.60;;;;;;20916218;28;20293;-77
2022/08/02 08:01:00;;;;;;;4.20;2.30;;;23.70;83.80;;;;;;20914630;28;20239;-81
2022/08/02 08:11:02;;;;;;;4.77;2.50;;;23.90;82.40;;;;;;20913804;28;20204;-79
2022/08/02 08:21:05;;;;;;;3.57;2.20;;;24.10;79.90;;;;;;20913806;28;20729;-78
2022/08/02 08:31:06;;;;;;;6.07;2.60;;;24.40;76.50;;;;;;20916031;28;20635;-80
2022/08/02 08:41:08;;;;;;;1.80;1.63;;;24.50;73.80;;;;;;20911779;28;20250;-79
2022/08/02 08:51:16;;;;;;;6.27;2.10;;;24.70;69.60;;;;;;20911099;28;20311;-78
2022/08/02 09:01:19;;;;;;;4.87;1.63;;;24.90;67.80;;;;;;20911136;28;20562;-76
2022/08/02 09:11:24;;;;;;;2.80;1.90;;;25.10;66.80;;;;;;20908806;28;20204;-74
2022/08/02 09:21:35;;;;;;;2.83;2.00;;;25.30;66.70;;;;;;20925518;28;20398;-76
2022/08/02 09:31:37;;;;;;;2.20;1.60;;;25.50;65.70;;;;;;20926318;28;20610;-77
2022/08/02 09:41:50;;;;;;;2.37;1.63;;;25.80;63.80;;;;;;20924470;28;20285;-73
2022/08/02 09:51:53;;;;;;;1.77;1.67;;;26.00;62.60;;;;;;20940129;28;20243;-76
2022/08/02 10:01:56;;;;;;;2.57;1.50;;;26.10;61.50;;;;;;20924599;28;20235;-78
2022/08/02 10:12:05;;;;;;;1.67;1.57;;;26.30;60.70;;;;;;20923194;28;20230;-78
2022/08/02 10:22:11;;;;;;;4.13;2.57;;;26.50;59.90;;;;;;20922827;28;20785;-74
2022/08/02 10:32:30;;;;;;;1.80;1.70;;;26.70;59.30;;;;;;20989595;28;20210;-79
2022/08/02 10:42:44;;;;;;;5.70;1.60;;;26.80;58.20;;;;;;21003560;28;20231;-76
2022/08/02 10:52:45;;;;;;;1.50;1.40;;;26.80;57.30;;;;;;21003403;28;20314;-72
2022/08/02 11:02:52;;;;;;;4.10;1.30;;;26.80;56.50;;;;;;21002865;28;20239;-78
2022/08/02 11:13:03;;;;;;;2.50;1.50;;;27.00;55.90;;;;;;20999107;28;20239;-78
2022/08/02 11:23:34;;;;;;;1.30;1.20;;;27.10;54.10;;;;;;21000687;28;20325;-76
2022/08/02 11:33:49;;;;;;;5.17;2.33;;;27.20;53.00;;;;;;20998689;28;20211;-76
2022/08/02 11:43:54;;;;;;;3.13;1.60;;;27.30;52.20;;;;;;20999157;28;20230;-72
2022/08/02 11:53:56;;;;;;;1.80;1.17;;;27.50;51.60;;;;;;21001118;28;20750;-71
2022/08/02 12:03:59;;;;;;;1.30;1.20;;;27.80;51.20;;;;;;20998010;28;20231;-78
2022/08/02 12:14:02;;;;;;;2.80;1.30;;;28.00;50.60;;;;;;20996618;28;20682;-79
2022/08/02 12:24:06;;;;;;;4.18;1.23;;;28.40;49.40;;;;;;20996673;28;20321;-74
2022/08/02 12:34:16;;;;;;;4.88;1.40;;;28.30;48.90;;;;;;20916672;28;20246;-76
2022/08/02 12:44:18;;;;;;;8.10;1.50;;;28.40;49.00;;;;;;20911421;28;20241;-77
2022/08/02 12:54:24;;;;;;;2.72;1.30;;;28.60;48.30;;;;;;20911715;28;20605;-76
2022/08/02 13:04:33;;;;;;;1.80;1.48;;;28.70;47.50;;;;;;20906909;28;20239;-74
2022/08/02 13:14:35;;;;;;;1.40;1.30;;;28.80;46.90;;;;;;20910699;28;20222;-79
2022/08/02 13:24:43;;;;;;;2.38;1.50;;;28.80;46.40;;;;;;20909479;28;20565;-70
2022/08/02 13:34:58;;;;;;;1.60;1.50;;;28.80;46.20;;;;;;20902407;28;20207;-76
2022/08/02 13:44:59;;;;;;;1.63;1.20;;;28.80;45.70;;;;;;20909057;28;20755;-73
2022/08/02 13:55:14;;;;;;;4.93;1.30;;;28.70;45.80;;;;;;20919340;28;20624;-75
2022/08/02 14:05:16;;;;;;;1.40;1.30;;;28.80;45.40;;;;;;20923602;28;20322;-78
2022/08/02 14:15:38;;;;;;;3.10;1.55;;;28.90;45.50;;;;;;20923153;28;20220;-73
2022/08/02 14:25:40;;;;;;;3.47;1.90;;;29.00;45.30;;;;;;20922870;28;20239;-78
2022/08/02 14:35:41;;;;;;;3.33;1.60;;;29.00;45.10;;;;;;21003417;28;20222;-77
2022/08/02 14:45:43;;;;;;;2.53;2.25;;;29.40;44.70;;;;;;21005572;28;20266;-75
2022/08/02 14:55:45;;;;;;;3.75;2.65;;;29.40;44.60;;;;;;21006390;28;20207;-73
2022/08/02 15:05:47;;;;;;;3.88;3.58;;;30.30;43.10;;;;;;21001419;28;20646;-77
2022/08/02 15:15:49;;;;;;;2.80;1.88;;;30.00;42.20;;;;;;21001105;28;20261;-77
2022/08/02 15:25:51;;;;;;;2.35;1.58;;;29.60;43.30;;;;;;21001173;28;20327;-76
2022/08/02 15:35:53;;;;;;;1.52;1.42;;;29.40;42.30;;;;;;20992358;28;20223;-77
2022/08/02 15:45:55;;;;;;;3.33;3.03;;;29.30;42.30;;;;;;20998820;28;20334;-78
2022/08/02 15:55:57;;;;;;;4.88;1.70;;;29.20;42.10;;;;;;20998369;28;20313;-75
2022/08/02 16:06:09;;;;;;;4.60;1.50;;;29.10;42.40;;;;;;21005327;28;20270;-75
2022/08/02 16:16:11;;;;;;;1.58;1.40;;;29.00;42.60;;;;;;21003871;28;20701;-78
2022/08/02 16:26:13;;;;;;;2.95;1.50;;;29.00;43.10;;;;;;20995533;28;20241;-72
2022/08/02 16:36:14;;;;;;;2.45;1.60;;;28.90;43.30;;;;;;20913966;28;20246;-72
2022/08/02 16:46:20;;;;;;;1.85;1.60;;;28.80;43.80;;;;;;20911735;28;20327;-79
2022/08/02 16:56:22;;;;;;;2.20;1.73;;;28.70;44.30;;;;;;20911730;28;20227;-76
2022/08/02 17:06:23;;;;;;;2.10;1.70;;;28.60;44.80;;;;;;20911854;28;20315;-76
2022/08/02 17:16:28;;;;;;;4.37;2.00;;;28.50;45.20;;;;;;20911393;28;20291;-71
2022/08/02 17:26:29;;;;;;;2.13;1.93;;;28.40;45.50;;;;;;20919141;28;20208;-72
2022/08/02 17:36:31;;;;;;;2.63;1.90;;;28.30;45.60;;;;;;20926757;28;20204;-70
2022/08/02 17:46:33;;;;;;;1.83;1.67;;;28.30;46.00;;;;;;20925590;28;20327;-73
2022/08/02 17:56:35;;;;;;;2.80;1.70;;;28.20;46.10;;;;;;20925220;28;20214;-71
2022/08/02 18:06:48;;;;;;;3.03;1.77;;;28.10;45.70;;;;;;20922090;28;20274;-71
2022/08/02 18:16:50;;;;;;;3.00;1.67;;;27.90;45.20;;;;;;20921311;28;20234;-69
2022/08/02 18:26:52;;;;;;;1.73;1.60;;;27.80;45.50;;;;;;20921305;28;20693;-71
2022/08/02 18:36:54;;;;;;;1.60;1.50;;;27.60;46.00;;;;;;20922503;28;20596;-72
2022/08/02 18:46:56;;;;;;;1.80;1.70;;;27.40;46.10;;;;;;20922020;28;20263;-72
2022/08/02 18:56:59;;;;;;;3.20;1.90;;;27.20;46.50;;;;;;20920767;28;20598;-73
2022/08/02 19:07:04;;;;;;;5.00;1.77;;;27.00;47.00;;;;;;20920814;28;20208;-73
2022/08/02 19:17:09;;;;;;;4.07;2.00;;;26.80;47.20;;;;;;20930602;28;20293;-74
2022/08/02 19:27:30;;;;;;;2.27;1.60;;;26.70;47.50;;;;;;20988858;28;20199;-72
2022/08/02 19:37:34;;;;;;;4.07;2.23;;;26.40;48.10;;;;;;20948864;28;20227;-72
2022/08/02 19:47:40;;;;;;;3.47;2.00;;;26.20;48.90;;;;;;20917911;28;20228;-73
2022/08/02 19:57:54;;;;;;;9.13;2.50;;;25.90;49.50;;;;;;20919274;28;20245;-73
2022/08/02 20:07:58;;;;;;;4.60;2.33;;;25.60;50.50;;;;;;20918277;28;20212;-71
2022/08/02 20:18:00;;;;;;;2.97;2.10;;;25.40;51.20;;;;;;20993943;28;20389;-72
2022/08/02 20:28:03;;;;;;;3.17;2.20;;;25.10;52.00;;;;;;20996397;28;20294;-72
2022/08/02 20:38:06;;;;;;;2.70;2.00;;;25.00;53.10;;;;;;20995814;28;20230;-72
2022/08/02 20:48:12;;;;;;;3.27;2.13;;;24.80;53.60;;;;;;20976728;28;20326;-71
2022/08/02 20:58:17;;;;;;;3.73;2.40;;;24.40;53.80;;;;;;20997876;28;20639;-72
2022/08/02 21:08:20;;;;;;;5.13;1.83;;;24.30;54.60;;;;;;21028181;28;20203;-72
2022/08/02 21:18:22;;;;;;;6.20;2.20;;;24.20;55.10;;;;;;21024844;28;20717;-73
2022/08/02 21:28:41;;;;;;;5.73;2.63;;;23.90;55.20;;;;;;21022444;28;20207;-71
2022/08/02 21:38:45;;;;;;;3.20;2.17;;;23.70;55.70;;;;;;21053748;28;20222;-71
2022/08/02 21:48:48;;;;;;;5.77;2.70;;;23.60;56.20;;;;;;21098233;28;20258;-72
2022/08/02 21:58:50;;;;;;;4.93;2.17;;;23.40;56.10;;;;;;21074217;28;20235;-72
2022/08/02 22:08:52;;;;;;;4.70;2.23;;;23.20;56.60;;;;;;21072379;28;20207;-72
2022/08/02 22:18:57;;;;;;;4.80;2.20;;;23.00;58.10;;;;;;21057072;28;20227;-72
2022/08/02 22:29:00;;;;;;;7.17;2.40;;;22.80;57.60;;;;;;21070822;28;20187;-72
2022/08/02 22:39:05;;;;;;;4.87;2.37;;;22.60;57.80;;;;;;21041987;28;20230;-72
2022/08/02 22:49:20;;;;;;;6.70;2.37;;;22.50;58.40;;;;;;20941531;28;20366;-70
2022/08/02 22:59:41;;;;;;;2.97;2.03;;;22.30;58.90;;;;;;20921254;28;20571;-71
2022/08/02 23:09:43;;;;;;;3.43;2.10;;;22.10;59.30;;;;;;20919497;28;20294;-71
2022/08/02 23:19:51;;;;;;;3.40;2.23;;;22.00;59.80;;;;;;20951289;28;20365;-71
2022/08/02 23:29:52;;;;;;;5.50;2.37;;;21.80;60.10;;;;;;20999864;28;20210;-71
2022/08/02 23:39:54;;;;;;;4.97;2.07;;;21.70;60.70;;;;;;20999469;28;20629;-71
2022/08/02 23:49:56;;;;;;;4.10;2.30;;;21.50;61.40;;;;;;20998846;28;20318;-71
2022/08/02 23:59:58;;;;;;;2.93;2.20;;;21.30;61.70;;;;;;20998024;28;20737;-72
